Time;durP1;ratioP1;P1;durP2;ratioP2;P2;SDS_P1;SDS_P2;PMS_P1;PMS_P2;Temp;Humidity;BMP_temperature;BMP_pressure;BME280_temperature;BME280_humidity;BME280_pressure;Samples;Min_cycle;Max_cycle;Signal;HPM_P1;HPM_P2
2023/08/03 00:00:54;;;;;;;0.38;0.38;;;;;;;;;;5910852;28;20048;-75
2023/08/03 00:03:45;;;;;;;0.60;0.47;;;;;;;;;;5909605;28;20123;-74
2023/08/03 00:06:36;;;;;;;0.63;0.50;;;;;;;;;;5911644;28;20049;-77
2023/08/03 00:09:27;;;;;;;5.47;0.75;;;;;;;;;;5911369;28;20067;-77
2023/08/03 00:12:18;;;;;;;1.80;0.63;;;;;;;;;;5911619;28;20495;-75
2023/08/03 00:15:10;;;;;;;0.70;0.40;;;;;;;;;;5893995;28;20057;-77
2023/08/03 00:18:00;;;;;;;0.47;0.35;;;;;;;;;;5894619;28;20099;-75
2023/08/03 00:20:52;;;;;;;0.80;0.68;;;;;;;;;;5894308;28;20060;-75
2023/08/03 00:23:43;;;;;;;0.30;0.30;;;;;;;;;;5912115;28;20051;-78
2023/08/03 00:26:34;;;;;;;2.78;0.57;;;;;;;;;;5911097;28;20049;-75
2023/08/03 00:29:25;;;;;;;0.73;0.45;;;;;;;;;;5911628;28;20051;-76
2023/08/03 00:32:16;;;;;;;0.75;0.50;;;;;;;;;;5894079;28;20048;-76
2023/08/03 00:35:07;;;;;;;1.67;0.80;;;;;;;;;;5911590;28;20110;-75
2023/08/03 00:37:58;;;;;;;0.88;0.40;;;;;;;;;;5915250;28;20048;-76
2023/08/03 00:40:52;;;;;;;0.50;0.50;;;;;;;;;;5916975;28;20517;-76
2023/08/03 00:43:43;;;;;;;0.30;0.30;;;;;;;;;;5916243;28;20050;-78
2023/08/03 00:46:34;;;;;;;0.77;0.30;;;;;;;;;;5898768;28;20044;-76
2023/08/03 00:49:27;;;;;;;0.30;0.30;;;;;;;;;;5916712;28;20044;-75
2023/08/03 00:52:20;;;;;;;0.25;0.20;;;;;;;;;;5916579;28;20048;-75
2023/08/03 00:55:10;;;;;;;0.43;0.30;;;;;;;;;;5916413;28;20058;-76
2023/08/03 00:58:02;;;;;;;0.68;0.40;;;;;;;;;;5916350;28;20110;-77
2023/08/03 01:00:53;;;;;;;0.05;0.05;;;;;;;;;;5916699;28;20138;-76
2023/08/03 01:03:44;;;;;;;0.47;0.45;;;;;;;;;;5915503;28;20063;-77
2023/08/03 01:06:35;;;;;;;0.35;0.20;;;;;;;;;;5897530;28;20048;-76
2023/08/03 01:09:26;;;;;;;0.38;0.20;;;;;;;;;;5897840;28;20053;-76
2023/08/03 01:12:18;;;;;;;0.60;0.32;;;;;;;;;;5915081;28;20487;-75
2023/08/03 01:15:09;;;;;;;2.28;0.63;;;;;;;;;;5897600;28;20053;-74
2023/08/03 01:18:00;;;;;;;1.15;0.95;;;;;;;;;;5915517;28;20052;-76
2023/08/03 01:20:51;;;;;;;1.67;0.30;;;;;;;;;;5915269;28;20044;-76
2023/08/03 01:23:41;;;;;;;0.55;0.30;;;;;;;;;;5880700;28;20052;-75
2023/08/03 01:26:33;;;;;;;0.70;0.40;;;;;;;;;;5897218;28;20049;-76
2023/08/03 01:29:23;;;;;;;1.25;0.90;;;;;;;;;;5914977;28;20047;-75
2023/08/03 01:32:14;;;;;;;0.20;0.20;;;;;;;;;;5896965;28;20071;-76
2023/08/03 01:35:06;;;;;;;0.45;0.38;;;;;;;;;;5914441;28;20052;-75
2023/08/03 01:37:57;;;;;;;3.00;0.63;;;;;;;;;;5897377;28;20048;-76
2023/08/03 01:40:48;;;;;;;0.77;0.40;;;;;;;;;;5914448;28;20062;-76
2023/08/03 01:43:39;;;;;;;0.20;0.20;;;;;;;;;;5896503;28;20503;-76
2023/08/03 01:46:30;;;;;;;0.32;0.30;;;;;;;;;;5914247;28;20040;-74
2023/08/03 01:49:24;;;;;;;0.63;0.45;;;;;;;;;;5896320;28;20055;-75
2023/08/03 01:52:15;;;;;;;0.13;0.13;;;;;;;;;;5914546;28;20127;-76
2023/08/03 01:55:06;;;;;;;0.50;0.40;;;;;;;;;;5914124;28;20045;-78
2023/08/03 01:57:57;;;;;;;0.77;0.30;;;;;;;;;;5906744;28;20056;-75
2023/08/03 02:00:48;;;;;;;0.20;0.20;;;;;;;;;;5914309;28;20055;-75
2023/08/03 02:03:39;;;;;;;2.05;0.73;;;;;;;;;;5915138;28;20401;-77
2023/08/03 02:06:31;;;;;;;0.52;0.40;;;;;;;;;;5914698;28;20410;-76
2023/08/03 02:09:21;;;;;;;0.10;0.10;;;;;;;;;;5914823;28;20498;-75
2023/08/03 02:12:12;;;;;;;0.28;0.20;;;;;;;;;;5914527;28;20084;-77
2023/08/03 02:15:07;;;;;;;0.82;0.70;;;;;;;;;;5914889;28;20060;-76
2023/08/03 02:17:57;;;;;;;0.60;0.38;;;;;;;;;;5896896;28;20076;-77
2023/08/03 02:20:48;;;;;;;1.65;0.90;;;;;;;;;;5914473;28;20052;-77
2023/08/03 02:23:39;;;;;;;0.38;0.38;;;;;;;;;;5914191;28;20048;-75
2023/08/03 02:26:30;;;;;;;1.08;0.30;;;;;;;;;;5914421;28;20053;-75
2023/08/03 02:29:20;;;;;;;0.82;0.60;;;;;;;;;;5914666;28;20479;-76
2023/08/03 02:32:11;;;;;;;0.32;0.32;;;;;;;;;;5914514;28;20071;-76
2023/08/03 02:35:02;;;;;;;0.70;0.45;;;;;;;;;;5896138;28;20044;-76
2023/08/03 02:37:53;;;;;;;1.60;0.22;;;;;;;;;;5914193;28;20445;-78
2023/08/03 02:40:43;;;;;;;3.53;0.35;;;;;;;;;;5913523;28;20041;-75
2023/08/03 02:43:34;;;;;;;0.43;0.30;;;;;;;;;;5912771;28;20051;-78
2023/08/03 02:46:25;;;;;;;0.88;0.30;;;;;;;;;;5912881;28;20051;-76
2023/08/03 02:49:16;;;;;;;1.40;0.82;;;;;;;;;;5912407;28;20048;-76
2023/08/03 02:52:07;;;;;;;1.00;0.82;;;;;;;;;;5912672;28;20048;-78
2023/08/03 02:54:57;;;;;;;3.03;0.45;;;;;;;;;;5912883;28;20048;-76
2023/08/03 02:57:48;;;;;;;1.08;0.98;;;;;;;;;;5912744;28;20053;-77
2023/08/03 03:00:40;;;;;;;6.72;0.68;;;;;;;;;;5912006;28;20049;-75
2023/08/03 03:03:31;;;;;;;1.48;0.30;;;;;;;;;;5928957;28;20043;-76
2023/08/03 03:06:22;;;;;;;1.02;0.65;;;;;;;;;;5915612;28;20131;-75
2023/08/03 03:09:12;;;;;;;4.18;0.68;;;;;;;;;;5915404;28;20044;-75
2023/08/03 03:12:03;;;;;;;1.17;0.70;;;;;;;;;;5912728;28;20048;-76
2023/08/03 03:14:54;;;;;;;0.32;0.32;;;;;;;;;;5935025;28;20438;-78
2023/08/03 03:17:45;;;;;;;1.15;0.80;;;;;;;;;;5935737;28;20384;-78
2023/08/03 03:20:36;;;;;;;1.67;0.98;;;;;;;;;;5935631;28;20056;-77
2023/08/03 03:23:26;;;;;;;2.08;1.05;;;;;;;;;;5935320;28;20051;-77
2023/08/03 03:26:17;;;;;;;0.50;0.30;;;;;;;;;;5935455;28;20517;-78
2023/08/03 03:29:08;;;;;;;0.52;0.28;;;;;;;;;;5935543;28;20056;-79
2023/08/03 03:31:59;;;;;;;2.80;0.75;;;;;;;;;;5936306;28;20047;-79
2023/08/03 03:34:53;;;;;;;0.63;0.63;;;;;;;;;;5935765;28;20044;-77
2023/08/03 03:37:44;;;;;;;0.75;0.65;;;;;;;;;;5936747;28;20066;-75
2023/08/03 03:40:35;;;;;;;0.55;0.55;;;;;;;;;;5935125;28;20459;-79
2023/08/03 03:43:25;;;;;;;0.70;0.38;;;;;;;;;;5935166;28;20085;-77
2023/08/03 03:46:16;;;;;;;1.35;0.82;;;;;;;;;;5934943;28;20060;-78
2023/08/03 03:49:07;;;;;;;1.20;0.55;;;;;;;;;;5935212;28;20101;-82
2023/08/03 03:51:58;;;;;;;0.30;0.30;;;;;;;;;;5936248;28;20070;-80
2023/08/03 03:54:49;;;;;;;0.52;0.52;;;;;;;;;;5918133;28;20043;-82
2023/08/03 03:57:39;;;;;;;0.30;0.30;;;;;;;;;;5936430;28;20058;-82
2023/08/03 04:00:30;;;;;;;0.15;0.13;;;;;;;;;;5936030;28;20044;-84
2023/08/03 04:03:23;;;;;;;0.25;0.25;;;;;;;;;;5935529;28;20157;-82
2023/08/03 04:06:14;;;;;;;0.55;0.50;;;;;;;;;;5934927;28;20051;-84
2023/08/03 04:09:05;;;;;;;0.38;0.38;;;;;;;;;;5935275;28;20044;-83
2023/08/03 04:11:56;;;;;;;2.30;0.82;;;;;;;;;;5934803;28;20048;-82
2023/08/03 04:14:47;;;;;;;1.15;0.60;;;;;;;;;;5934789;28;20048;-83
2023/08/03 04:17:38;;;;;;;1.35;0.40;;;;;;;;;;5916658;28;20055;-82
2023/08/03 04:20:29;;;;;;;1.02;0.70;;;;;;;;;;5935955;28;20499;-83
2023/08/03 04:23:20;;;;;;;1.55;1.02;;;;;;;;;;5916890;28;20071;-83
2023/08/03 04:26:11;;;;;;;0.30;0.30;;;;;;;;;;5934283;28;20052;-83
2023/08/03 04:29:01;;;;;;;0.80;0.73;;;;;;;;;;5934316;28;20048;-83
2023/08/03 04:31:52;;;;;;;0.52;0.45;;;;;;;;;;5934634;28;20048;-83
2023/08/03 04:34:43;;;;;;;0.50;0.32;;;;;;;;;;5934225;28;20122;-83
2023/08/03 04:37:34;;;;;;;0.95;0.55;;;;;;;;;;5934135;28;20044;-82
2023/08/03 04:40:24;;;;;;;1.10;0.70;;;;;;;;;;5934206;28;20040;-82
2023/08/03 04:43:15;;;;;;;2.15;0.60;;;;;;;;;;5934000;28;20048;-83
2023/08/03 04:46:06;;;;;;;0.30;0.20;;;;;;;;;;5933732;28;20062;-82
2023/08/03 04:48:58;;;;;;;0.90;0.63;;;;;;;;;;5916518;28;20060;-83
2023/08/03 04:51:51;;;;;;;1.27;0.60;;;;;;;;;;5934049;28;20044;-83
2023/08/03 04:54:42;;;;;;;0.70;0.70;;;;;;;;;;5934000;28;20521;-83
2023/08/03 04:57:33;;;;;;;0.93;0.77;;;;;;;;;;5899419;28;20044;-84
2023/08/03 05:00:24;;;;;;;22.17;0.85;;;;;;;;;;5934421;28;20051;-82
2023/08/03 05:03:15;;;;;;;0.65;0.65;;;;;;;;;;5934125;28;20060;-83
2023/08/03 05:06:05;;;;;;;0.13;0.13;;;;;;;;;;5916258;28;20056;-83
2023/08/03 05:08:56;;;;;;;3.45;0.43;;;;;;;;;;5916724;28;20406;-82
2023/08/03 05:11:47;;;;;;;0.25;0.22;;;;;;;;;;5934341;28;20520;-82
2023/08/03 05:14:38;;;;;;;0.85;0.70;;;;;;;;;;5934329;28;20047;-82
2023/08/03 05:17:29;;;;;;;1.35;1.25;;;;;;;;;;5933795;28;20040;-82
2023/08/03 05:20:19;;;;;;;0.43;0.32;;;;;;;;;;5934068;28;20055;-83
2023/08/03 05:23:12;;;;;;;2.85;0.88;;;;;;;;;;5935492;28;20048;-84
2023/08/03 05:26:03;;;;;;;0.52;0.52;;;;;;;;;;5920541;28;20071;-82
2023/08/03 05:28:55;;;;;;;0.93;0.70;;;;;;;;;;5938521;28;20071;-83
2023/08/03 05:31:49;;;;;;;0.90;0.80;;;;;;;;;;5938195;28;20054;-82
2023/08/03 05:34:40;;;;;;;1.10;0.88;;;;;;;;;;5938044;28;20042;-82
2023/08/03 05:37:31;;;;;;;0.50;0.50;;;;;;;;;;5919926;28;20048;-83
2023/08/03 05:40:22;;;;;;;1.70;0.73;;;;;;;;;;5937814;28;20078;-83
2023/08/03 05:43:14;;;;;;;0.40;0.40;;;;;;;;;;5937992;28;20055;-84
2023/08/03 05:46:05;;;;;;;0.20;0.20;;;;;;;;;;5919763;28;20047;-85
2023/08/03 05:48:56;;;;;;;0.93;0.45;;;;;;;;;;5938340;28;20044;-83
2023/08/03 05:51:47;;;;;;;0.40;0.40;;;;;;;;;;5938147;28;20055;-85
2023/08/03 05:54:38;;;;;;;2.85;0.77;;;;;;;;;;5937933;28;20059;-84
2023/08/03 05:57:29;;;;;;;0.75;0.68;;;;;;;;;;5937742;28;20059;-85
2023/08/03 06:00:21;;;;;;;2.28;0.90;;;;;;;;;;5919445;28;20078;-84
2023/08/03 06:03:14;;;;;;;0.40;0.40;;;;;;;;;;5937122;28;20130;-85
2023/08/03 06:06:06;;;;;;;0.40;0.40;;;;;;;;;;5919480;28;20050;-84
2023/08/03 06:08:58;;;;;;;1.05;0.75;;;;;;;;;;5937378;28;20189;-84
2023/08/03 06:11:51;;;;;;;0.40;0.40;;;;;;;;;;5919016;28;20039;-85
2023/08/03 06:14:42;;;;;;;1.13;0.77;;;;;;;;;;5919099;28;20630;-84
2023/08/03 06:17:33;;;;;;;0.55;0.55;;;;;;;;;;5902320;28;20055;-84
2023/08/03 06:20:24;;;;;;;2.38;0.68;;;;;;;;;;5936860;28;20040;-83
2023/08/03 06:23:26;;;;;;;1.30;1.00;;;;;;;;;;5918896;28;20044;-84
2023/08/03 06:26:19;;;;;;;0.65;0.63;;;;;;;;;;5902324;28;20048;-84
2023/08/03 06:29:14;;;;;;;0.75;0.40;;;;;;;;;;5919498;28;20052;-84
2023/08/03 06:32:08;;;;;;;1.13;0.93;;;;;;;;;;5902158;28;20050;-83
2023/08/03 06:34:59;;;;;;;0.60;0.45;;;;;;;;;;5918820;28;20067;-83
2023/08/03 06:37:53;;;;;;;1.05;0.28;;;;;;;;;;5918750;28;20410;-83
2023/08/03 06:40:46;;;;;;;0.60;0.60;;;;;;;;;;5936581;28;20121;-83
2023/08/03 06:43:37;;;;;;;2.97;1.10;;;;;;;;;;5936708;28;20048;-84
2023/08/03 06:46:30;;;;;;;0.50;0.30;;;;;;;;;;5936725;28;20381;-83
2023/08/03 06:49:22;;;;;;;2.85;1.05;;;;;;;;;;5936374;28;20052;-83
2023/08/03 06:52:13;;;;;;;0.50;0.50;;;;;;;;;;5918461;28;20044;-84
2023/08/03 06:55:04;;;;;;;1.90;0.63;;;;;;;;;;5936155;28;20064;-83
2023/08/03 06:57:55;;;;;;;0.50;0.50;;;;;;;;;;5936498;28;20044;-83
2023/08/03 07:00:47;;;;;;;1.65;0.98;;;;;;;;;;5936213;28;20513;-84
2023/08/03 07:03:38;;;;;;;0.77;0.57;;;;;;;;;;5936371;28;20040;-83
2023/08/03 07:06:29;;;;;;;2.00;0.90;;;;;;;;;;5936050;28;20067;-84
2023/08/03 07:09:19;;;;;;;0.20;0.20;;;;;;;;;;5935911;28;20498;-84
2023/08/03 07:12:10;;;;;;;0.47;0.40;;;;;;;;;;5936123;28;20407;-83
2023/08/03 07:15:02;;;;;;;0.70;0.55;;;;;;;;;;5918035;28;20085;-83
2023/08/03 07:17:53;;;;;;;1.08;0.52;;;;;;;;;;5936616;28;20051;-85
2023/08/03 07:20:44;;;;;;;0.55;0.43;;;;;;;;;;5917990;28;20044;-84
2023/08/03 07:23:35;;;;;;;0.93;0.85;;;;;;;;;;5936005;28;20051;-83
2023/08/03 07:26:26;;;;;;;0.70;0.70;;;;;;;;;;5935645;28;20044;-85
2023/08/03 07:29:16;;;;;;;0.75;0.60;;;;;;;;;;5936491;28;20521;-84
2023/08/03 07:32:08;;;;;;;1.80;1.08;;;;;;;;;;5936824;28;20391;-84
2023/08/03 07:35:00;;;;;;;4.25;1.10;;;;;;;;;;5918619;28;20056;-84
2023/08/03 07:37:51;;;;;;;2.13;1.05;;;;;;;;;;5935520;28;20555;-85
2023/08/03 07:40:42;;;;;;;0.70;0.70;;;;;;;;;;5935418;28;20054;-84
2023/08/03 07:43:32;;;;;;;0.88;0.63;;;;;;;;;;5934818;28;20040;-85
2023/08/03 07:46:23;;;;;;;1.63;0.88;;;;;;;;;;5934769;28;20051;-84
2023/08/03 07:49:14;;;;;;;1.38;0.82;;;;;;;;;;5917260;28;20506;-85
2023/08/03 07:52:06;;;;;;;0.52;0.52;;;;;;;;;;5934778;28;20054;-84
2023/08/03 07:54:56;;;;;;;0.50;0.50;;;;;;;;;;5917370;28;20051;-84
2023/08/03 07:57:47;;;;;;;1.83;1.15;;;;;;;;;;5916760;28;20051;-84
2023/08/03 08:00:38;;;;;;;1.15;0.98;;;;;;;;;;5934770;28;20044;-84
2023/08/03 08:03:29;;;;;;;1.13;0.55;;;;;;;;;;5934987;28;20165;-83
2023/08/03 08:06:20;;;;;;;1.83;0.50;;;;;;;;;;5934513;28;20127;-84
2023/08/03 08:09:11;;;;;;;0.52;0.52;;;;;;;;;;5917020;28;20052;-83
2023/08/03 08:12:06;;;;;;;0.80;0.40;;;;;;;;;;5916873;28;20510;-83
2023/08/03 08:14:57;;;;;;;0.88;0.47;;;;;;;;;;5935157;28;20043;-83
2023/08/03 08:17:47;;;;;;;1.95;0.82;;;;;;;;;;5934867;28;20048;-83
2023/08/03 08:20:39;;;;;;;1.55;0.65;;;;;;;;;;5934571;28;20048;-83
2023/08/03 08:23:30;;;;;;;1.85;0.63;;;;;;;;;;5934801;28;20044;-83
2023/08/03 08:26:21;;;;;;;1.85;0.60;;;;;;;;;;5916639;28;20047;-84
2023/08/03 08:29:12;;;;;;;0.80;0.70;;;;;;;;;;5934519;28;20048;-83
2023/08/03 08:32:03;;;;;;;0.38;0.30;;;;;;;;;;5934825;28;20060;-83
2023/08/03 08:34:54;;;;;;;0.43;0.30;;;;;;;;;;5934818;28;20453;-83
2023/08/03 08:37:45;;;;;;;0.20;0.20;;;;;;;;;;5934269;28;20062;-83
2023/08/03 08:40:37;;;;;;;0.22;0.22;;;;;;;;;;5934558;28;20044;-82
2023/08/03 08:43:28;;;;;;;1.00;0.60;;;;;;;;;;5934623;28;20051;-82
2023/08/03 08:46:19;;;;;;;6.70;0.68;;;;;;;;;;5934449;28;20044;-83
2023/08/03 08:49:11;;;;;;;3.00;0.93;;;;;;;;;;5934089;28;20083;-82
2023/08/03 08:52:25;;;;;;;1.33;0.38;;;;;;;;;;5934083;28;20048;-82
2023/08/03 08:55:19;;;;;;;0.20;0.20;;;;;;;;;;5916574;28;20127;-82
2023/08/03 08:58:30;;;;;;;0.55;0.55;;;;;;;;;;5936184;28;20048;-82
2023/08/03 09:01:51;;;;;;;0.95;0.45;;;;;;;;;;5938586;28;20090;-82
2023/08/03 09:04:42;;;;;;;3.70;0.52;;;;;;;;;;5938396;28;20129;-82
2023/08/03 09:07:34;;;;;;;1.55;0.88;;;;;;;;;;5938369;28;20052;-82
2023/08/03 09:10:25;;;;;;;0.80;0.70;;;;;;;;;;5938472;28;20406;-82
2023/08/03 09:13:31;;;;;;;3.20;1.95;;;;;;;;;;5938348;28;20048;-82
2023/08/03 09:16:26;;;;;;;0.90;0.70;;;;;;;;;;5938225;28;20073;-83
2023/08/03 09:19:37;;;;;;;34.83;1.45;;;;;;;;;;5938357;28;20047;-82
2023/08/03 09:22:48;;;;;;;1.65;1.00;;;;;;;;;;5923050;28;20052;-82
2023/08/03 09:25:52;;;;;;;1.00;0.55;;;;;;;;;;5938118;28;20044;-81
2023/08/03 09:28:43;;;;;;;1.55;1.08;;;;;;;;;;5937948;28;20040;-81
2023/08/03 09:31:34;;;;;;;0.73;0.52;;;;;;;;;;5938974;28;20047;-81
2023/08/03 09:34:38;;;;;;;0.38;0.32;;;;;;;;;;5938711;28;20040;-81
2023/08/03 09:37:35;;;;;;;5.32;0.43;;;;;;;;;;5920894;28;20044;-80
2023/08/03 09:40:44;;;;;;;0.47;0.30;;;;;;;;;;5921555;28;20044;-80
2023/08/03 09:43:35;;;;;;;1.73;0.88;;;;;;;;;;5938203;28;20048;-81
2023/08/03 09:46:29;;;;;;;0.57;0.38;;;;;;;;;;5937794;28;20064;-80
2023/08/03 09:49:20;;;;;;;2.70;0.73;;;;;;;;;;5920367;28;20180;-81
2023/08/03 09:52:20;;;;;;;0.68;0.60;;;;;;;;;;5937911;28;20715;-80
2023/08/03 09:55:39;;;;;;;1.08;0.55;;;;;;;;;;5923751;28;20513;-80
2023/08/03 09:58:56;;;;;;;2.28;1.05;;;;;;;;;;5920509;28;20517;-80
2023/08/03 10:01:52;;;;;;;0.77;0.65;;;;;;;;;;5920523;28;20066;-79
2023/08/03 10:04:45;;;;;;;0.70;0.38;;;;;;;;;;5937800;28;20051;-80
2023/08/03 10:07:51;;;;;;;0.20;0.17;;;;;;;;;;5937755;28;20051;-79
2023/08/03 10:10:46;;;;;;;1.55;1.00;;;;;;;;;;5936861;28;20474;-79
2023/08/03 10:13:44;;;;;;;0.85;0.65;;;;;;;;;;5903329;28;20043;-80
2023/08/03 10:16:36;;;;;;;0.97;0.83;;;;;;;;;;5937416;28;20056;-81
2023/08/03 10:19:28;;;;;;;3.30;0.80;;;;;;;;;;5919500;28;20146;-80
2023/08/03 10:22:19;;;;;;;0.77;0.75;;;;;;;;;;5937453;28;20044;-79
2023/08/03 10:25:18;;;;;;;1.15;0.45;;;;;;;;;;5937205;28;20047;-80
2023/08/03 10:28:15;;;;;;;0.28;0.28;;;;;;;;;;5937789;28;20048;-80
2023/08/03 10:31:14;;;;;;;1.27;0.50;;;;;;;;;;5937081;28;20047;-80
2023/08/03 10:34:08;;;;;;;0.55;0.35;;;;;;;;;;5937034;28;20055;-79
2023/08/03 10:36:59;;;;;;;0.40;0.40;;;;;;;;;;5937870;28;20344;-79
2023/08/03 10:39:56;;;;;;;0.50;0.50;;;;;;;;;;5937003;28;20048;-82
2023/08/03 10:43:08;;;;;;;1.08;0.52;;;;;;;;;;5937015;28;20439;-79
2023/08/03 10:46:30;;;;;;;0.73;0.50;;;;;;;;;;5919399;28;20048;-79
2023/08/03 10:49:22;;;;;;;0.38;0.20;;;;;;;;;;5918662;28;20514;-80
2023/08/03 10:52:28;;;;;;;0.63;0.40;;;;;;;;;;5936627;28;20052;-79
2023/08/03 10:55:27;;;;;;;0.88;0.75;;;;;;;;;;5936690;28;20052;-78
2023/08/03 10:58:19;;;;;;;;;;;;;;;;;;5918809;28;20105;-79
2023/08/03 11:01:15;;;;;;;0.47;0.47;;;;;;;;;;5918225;28;19924;-80
2023/08/03 11:04:05;;;;;;;0.77;0.50;;;;;;;;;;5936099;28;20048;-80
2023/08/03 11:06:56;;;;;;;0.45;0.45;;;;;;;;;;5936659;28;20429;-81
2023/08/03 11:09:48;;;;;;;0.38;0.38;;;;;;;;;;5936236;28;20399;-80
2023/08/03 11:12:42;;;;;;;1.40;0.95;;;;;;;;;;5918203;28;20454;-80
2023/08/03 11:15:33;;;;;;;0.50;0.50;;;;;;;;;;5918725;28;20063;-79
2023/08/03 11:18:24;;;;;;;1.40;0.43;;;;;;;;;;5935612;28;20501;-80
2023/08/03 11:21:15;;;;;;;0.38;0.35;;;;;;;;;;5935463;28;20502;-79
2023/08/03 11:24:14;;;;;;;0.60;0.50;;;;;;;;;;5919050;28;20048;-80
2023/08/03 11:27:05;;;;;;;0.55;0.28;;;;;;;;;;5936422;28;20127;-80
2023/08/03 11:29:56;;;;;;;1.40;0.50;;;;;;;;;;5919416;28;20537;-80
2023/08/03 11:32:47;;;;;;;1.48;0.60;;;;;;;;;;5935923;28;20067;-79
2023/08/03 11:35:38;;;;;;;0.88;0.82;;;;;;;;;;5935761;28;20048;-79
2023/08/03 11:38:31;;;;;;;0.50;0.40;;;;;;;;;;5935346;28;20124;-79
2023/08/03 11:41:24;;;;;;;1.27;0.57;;;;;;;;;;5935146;28;20048;-79
2023/08/03 11:44:23;;;;;;;1.52;0.93;;;;;;;;;;5919130;28;20040;-79
2023/08/03 11:47:14;;;;;;;1.05;0.63;;;;;;;;;;5935276;28;20044;-79
2023/08/03 11:50:05;;;;;;;1.17;0.75;;;;;;;;;;5934819;28;20423;-80
2023/08/03 11:52:59;;;;;;;0.20;0.20;;;;;;;;;;5935795;28;20398;-79
2023/08/03 11:56:10;;;;;;;0.68;0.43;;;;;;;;;;5927892;28;20048;-78
2023/08/03 11:59:01;;;;;;;0.55;0.30;;;;;;;;;;5917406;28;20082;-79
2023/08/03 12:01:52;;;;;;;0.52;0.38;;;;;;;;;;5935616;28;20356;-79
2023/08/03 12:04:51;;;;;;;0.28;0.15;;;;;;;;;;5934863;28;20620;-79
2023/08/03 12:07:43;;;;;;;0.10;0.10;;;;;;;;;;5934750;28;20067;-80
2023/08/03 12:11:01;;;;;;;1.80;0.52;;;;;;;;;;5919985;28;20052;-79
2023/08/03 12:13:52;;;;;;;0.55;0.55;;;;;;;;;;5935180;28;20154;-79
2023/08/03 12:16:43;;;;;;;0.25;0.20;;;;;;;;;;5929663;28;20044;-79
2023/08/03 12:19:34;;;;;;;1.92;0.60;;;;;;;;;;5913765;28;20677;-79
2023/08/03 12:22:25;;;;;;;0.30;0.30;;;;;;;;;;5915526;28;20459;-80
2023/08/03 12:25:16;;;;;;;0.68;0.45;;;;;;;;;;5911879;28;20056;-78
2023/08/03 12:28:06;;;;;;;0.40;0.32;;;;;;;;;;5911559;28;20049;-78
2023/08/03 12:31:00;;;;;;;1.65;0.57;;;;;;;;;;5911999;28;20103;-80
2023/08/03 12:33:50;;;;;;;0.17;0.17;;;;;;;;;;5914594;28;20068;-79
2023/08/03 12:36:42;;;;;;;1.27;0.50;;;;;;;;;;5895814;28;20365;-80
2023/08/03 12:39:33;;;;;;;0.82;0.40;;;;;;;;;;5915612;28;20563;-78
2023/08/03 12:42:24;;;;;;;8.45;0.60;;;;;;;;;;5915538;28;20049;-79
2023/08/03 12:45:14;;;;;;;3.72;0.55;;;;;;;;;;5915507;28;20526;-80
2023/08/03 12:48:06;;;;;;;0.50;0.35;;;;;;;;;;5915296;28;20445;-79
2023/08/03 12:51:07;;;;;;;1.02;0.80;;;;;;;;;;5914967;28;20126;-78
2023/08/03 12:53:57;;;;;;;4.38;0.70;;;;;;;;;;5910837;28;20051;-79
2023/08/03 12:56:48;;;;;;;1.25;0.75;;;;;;;;;;5911234;28;20400;-79
2023/08/03 12:59:39;;;;;;;0.63;0.30;;;;;;;;;;5915142;28;20044;-80
2023/08/03 13:02:31;;;;;;;2.38;1.10;;;;;;;;;;5914848;28;20159;-78
2023/08/03 13:05:34;;;;;;;0.30;0.30;;;;;;;;;;5914918;28;20055;-78
2023/08/03 13:08:28;;;;;;;0.53;0.37;;;;;;;;;;5914535;28;20052;-78
2023/08/03 13:11:19;;;;;;;1.73;0.65;;;;;;;;;;5912851;28;20287;-79
2023/08/03 13:14:10;;;;;;;2.85;0.75;;;;;;;;;;5908489;28;20846;-78
2023/08/03 13:17:03;;;;;;;0.22;0.22;;;;;;;;;;5901187;28;20060;-79
2023/08/03 13:19:54;;;;;;;0.65;0.35;;;;;;;;;;5915167;28;20538;-79
2023/08/03 13:22:45;;;;;;;1.38;0.30;;;;;;;;;;5914690;28;20051;-79
2023/08/03 13:25:36;;;;;;;1.13;0.77;;;;;;;;;;5914485;28;20136;-79
2023/08/03 13:28:27;;;;;;;1.58;0.70;;;;;;;;;;5919357;28;20406;-80
2023/08/03 13:31:19;;;;;;;15.25;0.73;;;;;;;;;;5924440;28;20054;-79
2023/08/03 13:34:10;;;;;;;2.78;0.68;;;;;;;;;;5922135;28;20047;-78
2023/08/03 13:37:00;;;;;;;3.65;1.23;;;;;;;;;;5906420;28;20480;-79
2023/08/03 13:39:51;;;;;;;0.75;0.70;;;;;;;;;;5926361;28;20047;-79
2023/08/03 13:42:42;;;;;;;3.40;1.17;;;;;;;;;;5926012;28;20093;-79
2023/08/03 13:45:33;;;;;;;1.52;0.45;;;;;;;;;;5937479;28;20075;-79
2023/08/03 13:48:24;;;;;;;4.40;1.23;;;;;;;;;;5916812;28;20044;-77
2023/08/03 13:51:15;;;;;;;1.17;0.73;;;;;;;;;;5895907;28;20060;-80
2023/08/03 13:54:08;;;;;;;3.63;1.02;;;;;;;;;;5911467;28;20051;-79
2023/08/03 13:56:59;;;;;;;0.60;0.38;;;;;;;;;;5895989;28;20495;-78
2023/08/03 13:59:50;;;;;;;3.70;1.33;;;;;;;;;;5914610;28;20516;-78
2023/08/03 14:02:44;;;;;;;0.55;0.50;;;;;;;;;;5914216;28;20036;-79
2023/08/03 14:05:35;;;;;;;4.80;0.73;;;;;;;;;;5925744;28;20422;-80
2023/08/03 14:08:29;;;;;;;0.57;0.57;;;;;;;;;;5913408;28;20048;-78
2023/08/03 14:11:20;;;;;;;1.23;0.68;;;;;;;;;;5916111;28;20407;-79
2023/08/03 14:14:12;;;;;;;0.30;0.30;;;;;;;;;;5913089;28;20423;-80
2023/08/03 14:17:22;;;;;;;1.08;0.85;;;;;;;;;;5910922;28;20044;-78
2023/08/03 14:20:18;;;;;;;0.40;0.40;;;;;;;;;;5913213;28;20036;-78
2023/08/03 14:23:12;;;;;;;1.65;0.80;;;;;;;;;;5913326;28;20146;-78
2023/08/03 14:26:03;;;;;;;3.67;1.25;;;;;;;;;;5913107;28;20152;-78
2023/08/03 14:28:54;;;;;;;1.17;0.80;;;;;;;;;;5913432;28;20076;-78
2023/08/03 14:31:48;;;;;;;0.75;0.40;;;;;;;;;;5927578;28;20040;-77
2023/08/03 14:34:39;;;;;;;3.13;1.08;;;;;;;;;;5918514;28;20047;-79
2023/08/03 14:37:33;;;;;;;4.30;1.00;;;;;;;;;;5936400;28;20052;-79
2023/08/03 14:40:23;;;;;;;1.98;0.80;;;;;;;;;;5936278;28;20256;-79
2023/08/03 14:43:14;;;;;;;0.80;0.43;;;;;;;;;;5936594;28;20047;-80
2023/08/03 14:46:05;;;;;;;2.85;0.68;;;;;;;;;;5917954;28;20059;-79
2023/08/03 14:48:56;;;;;;;2.58;0.70;;;;;;;;;;5936208;28;20048;-79
2023/08/03 14:51:49;;;;;;;0.30;0.30;;;;;;;;;;5936050;28;20044;-79
2023/08/03 14:54:45;;;;;;;2.00;0.60;;;;;;;;;;5936029;28;20040;-77
2023/08/03 14:57:36;;;;;;;0.95;0.50;;;;;;;;;;5936073;28;20051;-79
2023/08/03 15:00:27;;;;;;;1.75;0.52;;;;;;;;;;5936398;28;20056;-78
2023/08/03 15:03:21;;;;;;;0.60;0.32;;;;;;;;;;5918055;28;20059;-79
2023/08/03 15:06:14;;;;;;;1.95;0.60;;;;;;;;;;5935904;28;20070;-79
2023/08/03 15:09:06;;;;;;;1.83;0.73;;;;;;;;;;5917791;28;20054;-78
2023/08/03 15:11:57;;;;;;;1.58;0.98;;;;;;;;;;5935926;28;20044;-81
2023/08/03 15:14:54;;;;;;;2.42;1.35;;;;;;;;;;5927282;28;20050;-77
2023/08/03 15:17:45;;;;;;;1.20;0.57;;;;;;;;;;5935472;28;20044;-78
2023/08/03 15:20:37;;;;;;;0.65;0.63;;;;;;;;;;5935225;28;20449;-77
2023/08/03 15:23:28;;;;;;;0.20;0.20;;;;;;;;;;5935420;28;20063;-77
2023/08/03 15:26:20;;;;;;;0.60;0.60;;;;;;;;;;5933151;28;20048;-79
2023/08/03 15:29:20;;;;;;;2.95;1.08;;;;;;;;;;5930136;28;20118;-82
2023/08/03 15:32:15;;;;;;;0.70;0.57;;;;;;;;;;5935410;28;20190;-78
2023/08/03 15:35:08;;;;;;;0.80;0.60;;;;;;;;;;5934959;28;20071;-79
2023/08/03 15:38:01;;;;;;;1.23;0.77;;;;;;;;;;5917710;28;20123;-78
2023/08/03 15:40:53;;;;;;;0.90;0.63;;;;;;;;;;5934743;28;20182;-78
2023/08/03 15:43:55;;;;;;;1.85;1.38;;;;;;;;;;5935166;28;20036;-79
2023/08/03 15:46:51;;;;;;;1.40;0.73;;;;;;;;;;5928976;28;20052;-80
2023/08/03 15:50:02;;;;;;;1.33;0.43;;;;;;;;;;5927701;28;20051;-78
2023/08/03 15:52:59;;;;;;;0.95;0.50;;;;;;;;;;5935277;28;20048;-79
2023/08/03 15:55:58;;;;;;;0.40;0.40;;;;;;;;;;5934542;28;20052;-78
2023/08/03 15:58:52;;;;;;;0.82;0.57;;;;;;;;;;5934918;28;20047;-78
2023/08/03 16:01:43;;;;;;;0.57;0.57;;;;;;;;;;5929762;28;20067;-78
2023/08/03 16:04:34;;;;;;;3.45;0.95;;;;;;;;;;5931870;28;20054;-78
2023/08/03 16:07:25;;;;;;;2.65;1.13;;;;;;;;;;5920661;28;20372;-78
2023/08/03 16:10:15;;;;;;;0.38;0.38;;;;;;;;;;5934497;28;20059;-79
2023/08/03 16:13:09;;;;;;;1.65;0.50;;;;;;;;;;5933486;28;20524;-79
2023/08/03 16:16:01;;;;;;;0.95;0.70;;;;;;;;;;5927287;28;20055;-79
2023/08/03 16:18:52;;;;;;;4.00;1.15;;;;;;;;;;5934249;28;20048;-78
2023/08/03 16:21:43;;;;;;;0.30;0.30;;;;;;;;;;5929456;28;20044;-78
2023/08/03 16:24:34;;;;;;;0.55;0.55;;;;;;;;;;5949923;28;20052;-78
2023/08/03 16:27:25;;;;;;;1.70;0.32;;;;;;;;;;5939155;28;20411;-79
2023/08/03 16:30:16;;;;;;;1.38;0.43;;;;;;;;;;5913198;28;20510;-78
2023/08/03 16:33:07;;;;;;;0.75;0.40;;;;;;;;;;5893122;28;20055;-78
2023/08/03 16:35:59;;;;;;;0.70;0.50;;;;;;;;;;5941547;28;20071;-79
2023/08/03 16:38:49;;;;;;;0.57;0.50;;;;;;;;;;5934264;28;20388;-78
2023/08/03 16:41:40;;;;;;;1.33;0.70;;;;;;;;;;5929650;28;20059;-79
2023/08/03 16:44:31;;;;;;;5.68;0.77;;;;;;;;;;5930654;28;20054;-79
2023/08/03 16:47:22;;;;;;;0.32;0.32;;;;;;;;;;5938696;28;20047;-79
2023/08/03 16:50:13;;;;;;;1.27;0.52;;;;;;;;;;5951842;28;20054;-80
2023/08/03 16:53:04;;;;;;;0.82;0.63;;;;;;;;;;5958773;28;20044;-81
2023/08/03 16:55:54;;;;;;;1.40;0.68;;;;;;;;;;5954307;28;20048;-81
2023/08/03 16:58:45;;;;;;;0.63;0.50;;;;;;;;;;5929298;28;20051;-79
2023/08/03 17:01:36;;;;;;;1.58;0.50;;;;;;;;;;5903948;28;20395;-78
2023/08/03 17:04:28;;;;;;;3.33;0.88;;;;;;;;;;5917910;28;20128;-79
2023/08/03 17:07:18;;;;;;;0.57;0.28;;;;;;;;;;5940918;28;20059;-79
2023/08/03 17:10:10;;;;;;;2.85;0.50;;;;;;;;;;5913984;28;20071;-78
2023/08/03 17:13:00;;;;;;;1.42;0.73;;;;;;;;;;5902696;28;20044;-78
2023/08/03 17:15:52;;;;;;;0.52;0.28;;;;;;;;;;5941158;28;20043;-79